sensor_id;sensor_type;location;lat;lon;timestamp;P1;durP1;ratioP1;P2;durP2;ratioP2
34060;SDS011;20336;-33.424;-70.638;2023-11-21T00:01:05;3.60;;;1.00;;
34060;SDS011;20336;-33.424;-70.638;2023-11-21T00:03:34;6.63;;;1.20;;
34060;SDS011;20336;-33.424;-70.638;2023-11-21T00:06:01;15.35;;;1.35;;
34060;SDS011;20336;-33.424;-70.638;2023-11-21T00:08:28;4.20;;;1.13;;
34060;SDS011;20336;-33.424;-70.638;2023-11-21T00:10:55;5.68;;;1.42;;
34060;SDS011;20336;-33.424;-70.638;2023-11-21T00:13:22;6.93;;;1.25;;
34060;SDS011;20336;-33.424;-70.638;2023-11-21T00:15:49;10.10;;;1.33;;
34060;SDS011;20336;-33.424;-70.638;2023-11-21T00:18:16;3.85;;;1.67;;
34060;SDS011;20336;-33.424;-70.638;2023-11-21T00:20:43;4.47;;;1.10;;
34060;SDS011;20336;-33.424;-70.638;2023-11-21T00:23:10;7.60;;;1.13;;
34060;SDS011;20336;-33.424;-70.638;2023-11-21T00:25:37;5.50;;;1.00;;
34060;SDS011;20336;-33.424;-70.638;2023-11-21T00:28:05;5.15;;;1.27;;
34060;SDS011;20336;-33.424;-70.638;2023-11-21T00:30:32;6.55;;;1.30;;
34060;SDS011;20336;-33.424;-70.638;2023-11-21T00:32:59;3.72;;;1.23;;
34060;SDS011;20336;-33.424;-70.638;2023-11-21T00:35:26;5.97;;;1.40;;
34060;SDS011;20336;-33.424;-70.638;2023-11-21T00:37:53;3.88;;;1.10;;
34060;SDS011;20336;-33.424;-70.638;2023-11-21T00:40:20;4.53;;;1.40;;
34060;SDS011;20336;-33.424;-70.638;2023-11-21T00:42:47;5.75;;;1.40;;
34060;SDS011;20336;-33.424;-70.638;2023-11-21T00:45:14;6.47;;;1.30;;
34060;SDS011;20336;-33.424;-70.638;2023-11-21T00:47:41;5.30;;;1.40;;
34060;SDS011;20336;-33.424;-70.638;2023-11-21T00:50:08;8.32;;;1.55;;
34060;SDS011;20336;-33.424;-70.638;2023-11-21T00:52:35;6.80;;;1.38;;
34060;SDS011;20336;-33.424;-70.638;2023-11-21T00:55:03;5.03;;;1.48;;
34060;SDS011;20336;-33.424;-70.638;2023-11-21T00:57:30;5.82;;;1.50;;
34060;SDS011;20336;-33.424;-70.638;2023-11-21T00:59:57;8.20;;;1.60;;
34060;SDS011;20336;-33.424;-70.638;2023-11-21T01:02:24;7.20;;;1.40;;
34060;SDS011;20336;-33.424;-70.638;2023-11-21T01:04:51;7.38;;;1.40;;
34060;SDS011;20336;-33.424;-70.638;2023-11-21T01:07:18;8.70;;;1.80;;
34060;SDS011;20336;-33.424;-70.638;2023-11-21T01:09:48;7.88;;;1.90;;
34060;SDS011;20336;-33.424;-70.638;2023-11-21T01:12:15;4.95;;;1.65;;
34060;SDS011;20336;-33.424;-70.638;2023-11-21T01:14:43;6.03;;;1.70;;
34060;SDS011;20336;-33.424;-70.638;2023-11-21T01:17:10;7.13;;;1.45;;
34060;SDS011;20336;-33.424;-70.638;2023-11-21T01:19:37;4.60;;;1.45;;
34060;SDS011;20336;-33.424;-70.638;2023-11-21T01:22:04;6.25;;;1.60;;
34060;SDS011;20336;-33.424;-70.638;2023-11-21T01:24:31;4.72;;;1.40;;
34060;SDS011;20336;-33.424;-70.638;2023-11-21T01:26:58;4.93;;;1.63;;
34060;SDS011;20336;-33.424;-70.638;2023-11-21T01:29:25;4.60;;;1.50;;
34060;SDS011;20336;-33.424;-70.638;2023-11-21T01:31:53;6.32;;;1.65;;
34060;SDS011;20336;-33.424;-70.638;2023-11-21T01:34:20;7.43;;;1.80;;
34060;SDS011;20336;-33.424;-70.638;2023-11-21T01:36:47;4.97;;;1.75;;
34060;SDS011;20336;-33.424;-70.638;2023-11-21T01:39:15;7.10;;;1.55;;
34060;SDS011;20336;-33.424;-70.638;2023-11-21T01:41:51;4.90;;;1.67;;
34060;SDS011;20336;-33.424;-70.638;2023-11-21T01:44:19;5.40;;;1.48;;
34060;SDS011;20336;-33.424;-70.638;2023-11-21T01:46:47;9.43;;;1.35;;
34060;SDS011;20336;-33.424;-70.638;2023-11-21T01:49:14;6.85;;;1.70;;
34060;SDS011;20336;-33.424;-70.638;2023-11-21T01:51:43;6.18;;;1.88;;
34060;SDS011;20336;-33.424;-70.638;2023-11-21T01:54:15;8.48;;;2.00;;
34060;SDS011;20336;-33.424;-70.638;2023-11-21T01:56:43;4.63;;;1.60;;
34060;SDS011;20336;-33.424;-70.638;2023-11-21T01:59:10;6.38;;;1.85;;
34060;SDS011;20336;-33.424;-70.638;2023-11-21T02:01:38;7.00;;;1.90;;
34060;SDS011;20336;-33.424;-70.638;2023-11-21T02:04:06;5.35;;;1.80;;
34060;SDS011;20336;-33.424;-70.638;2023-11-21T02:06:33;8.05;;;1.52;;
34060;SDS011;20336;-33.424;-70.638;2023-11-21T02:09:00;6.57;;;1.70;;
34060;SDS011;20336;-33.424;-70.638;2023-11-21T02:11:30;11.07;;;1.73;;
34060;SDS011;20336;-33.424;-70.638;2023-11-21T02:14:00;10.18;;;1.65;;
34060;SDS011;20336;-33.424;-70.638;2023-11-21T02:16:27;6.97;;;1.60;;
34060;SDS011;20336;-33.424;-70.638;2023-11-21T02:18:57;5.53;;;1.65;;
34060;SDS011;20336;-33.424;-70.638;2023-11-21T02:21:24;4.47;;;1.67;;
34060;SDS011;20336;-33.424;-70.638;2023-11-21T02:23:51;5.93;;;2.05;;
34060;SDS011;20336;-33.424;-70.638;2023-11-21T02:26:18;4.20;;;1.70;;
34060;SDS011;20336;-33.424;-70.638;2023-11-21T02:28:45;5.68;;;2.03;;
34060;SDS011;20336;-33.424;-70.638;2023-11-21T02:31:13;9.68;;;1.92;;
34060;SDS011;20336;-33.424;-70.638;2023-11-21T02:33:40;8.90;;;2.22;;
34060;SDS011;20336;-33.424;-70.638;2023-11-21T02:36:08;7.82;;;1.70;;
34060;SDS011;20336;-33.424;-70.638;2023-11-21T02:38:36;5.90;;;1.70;;
34060;SDS011;20336;-33.424;-70.638;2023-11-21T02:41:03;6.43;;;1.40;;
34060;SDS011;20336;-33.424;-70.638;2023-11-21T02:43:30;9.23;;;1.67;;
34060;SDS011;20336;-33.424;-70.638;2023-11-21T02:45:57;10.07;;;2.08;;
34060;SDS011;20336;-33.424;-70.638;2023-11-21T02:48:24;6.35;;;1.77;;
34060;SDS011;20336;-33.424;-70.638;2023-11-21T02:50:51;6.15;;;1.63;;
34060;SDS011;20336;-33.424;-70.638;2023-11-21T02:53:18;6.78;;;2.05;;
34060;SDS011;20336;-33.424;-70.638;2023-11-21T02:55:45;7.82;;;1.75;;
34060;SDS011;20336;-33.424;-70.638;2023-11-21T02:58:12;6.40;;;1.80;;
34060;SDS011;20336;-33.424;-70.638;2023-11-21T03:00:40;7.80;;;1.85;;
34060;SDS011;20336;-33.424;-70.638;2023-11-21T03:03:07;4.97;;;1.80;;
34060;SDS011;20336;-33.424;-70.638;2023-11-21T03:05:34;6.28;;;1.60;;
34060;SDS011;20336;-33.424;-70.638;2023-11-21T03:08:02;5.78;;;1.65;;
34060;SDS011;20336;-33.424;-70.638;2023-11-21T03:10:29;6.80;;;1.55;;
34060;SDS011;20336;-33.424;-70.638;2023-11-21T03:12:56;3.80;;;1.60;;
34060;SDS011;20336;-33.424;-70.638;2023-11-21T03:15:23;6.20;;;1.70;;
34060;SDS011;20336;-33.424;-70.638;2023-11-21T03:17:50;5.15;;;1.67;;
34060;SDS011;20336;-33.424;-70.638;2023-11-21T03:20:17;8.13;;;1.65;;
34060;SDS011;20336;-33.424;-70.638;2023-11-21T03:22:44;7.78;;;1.80;;
34060;SDS011;20336;-33.424;-70.638;2023-11-21T03:25:11;7.85;;;2.38;;
34060;SDS011;20336;-33.424;-70.638;2023-11-21T03:27:38;6.50;;;2.10;;
34060;SDS011;20336;-33.424;-70.638;2023-11-21T03:30:07;6.28;;;1.60;;
34060;SDS011;20336;-33.424;-70.638;2023-11-21T03:32:38;8.95;;;1.90;;
34060;SDS011;20336;-33.424;-70.638;2023-11-21T03:35:05;5.43;;;1.90;;
34060;SDS011;20336;-33.424;-70.638;2023-11-21T03:37:32;7.78;;;1.73;;
34060;SDS011;20336;-33.424;-70.638;2023-11-21T03:39:59;7.30;;;1.67;;
34060;SDS011;20336;-33.424;-70.638;2023-11-21T03:42:26;8.63;;;1.85;;
34060;SDS011;20336;-33.424;-70.638;2023-11-21T03:44:53;5.57;;;2.00;;
34060;SDS011;20336;-33.424;-70.638;2023-11-21T03:47:20;5.55;;;1.75;;
34060;SDS011;20336;-33.424;-70.638;2023-11-21T03:49:47;8.40;;;1.85;;
34060;SDS011;20336;-33.424;-70.638;2023-11-21T03:52:14;5.75;;;1.88;;
34060;SDS011;20336;-33.424;-70.638;2023-11-21T03:54:41;4.80;;;2.05;;
34060;SDS011;20336;-33.424;-70.638;2023-11-21T03:57:08;5.10;;;2.00;;
34060;SDS011;20336;-33.424;-70.638;2023-11-21T03:59:35;8.57;;;1.92;;
34060;SDS011;20336;-33.424;-70.638;2023-11-21T04:02:03;6.10;;;1.83;;
34060;SDS011;20336;-33.424;-70.638;2023-11-21T04:04:30;6.70;;;1.87;;
34060;SDS011;20336;-33.424;-70.638;2023-11-21T04:06:57;6.93;;;2.17;;
34060;SDS011;20336;-33.424;-70.638;2023-11-21T04:09:24;9.93;;;1.90;;
34060;SDS011;20336;-33.424;-70.638;2023-11-21T04:11:51;8.73;;;1.90;;
34060;SDS011;20336;-33.424;-70.638;2023-11-21T04:14:18;4.10;;;1.93;;
34060;SDS011;20336;-33.424;-70.638;2023-11-21T04:16:45;13.50;;;2.33;;
34060;SDS011;20336;-33.424;-70.638;2023-11-21T04:19:12;6.80;;;2.07;;
34060;SDS011;20336;-33.424;-70.638;2023-11-21T04:21:42;6.90;;;1.97;;
34060;SDS011;20336;-33.424;-70.638;2023-11-21T04:24:10;4.27;;;2.20;;
34060;SDS011;20336;-33.424;-70.638;2023-11-21T04:26:37;7.65;;;2.40;;
34060;SDS011;20336;-33.424;-70.638;2023-11-21T04:29:04;9.03;;;2.50;;
34060;SDS011;20336;-33.424;-70.638;2023-11-21T04:31:31;9.67;;;2.60;;
34060;SDS011;20336;-33.424;-70.638;2023-11-21T04:33:58;11.97;;;2.73;;
34060;SDS011;20336;-33.424;-70.638;2023-11-21T04:36:25;8.57;;;2.90;;
34060;SDS011;20336;-33.424;-70.638;2023-11-21T04:38:52;6.30;;;2.23;;
34060;SDS011;20336;-33.424;-70.638;2023-11-21T04:41:19;7.63;;;2.47;;
34060;SDS011;20336;-33.424;-70.638;2023-11-21T04:43:46;10.50;;;2.97;;
34060;SDS011;20336;-33.424;-70.638;2023-11-21T04:46:13;5.83;;;2.17;;
34060;SDS011;20336;-33.424;-70.638;2023-11-21T04:48:40;12.10;;;2.33;;
34060;SDS011;20336;-33.424;-70.638;2023-11-21T04:51:06;6.00;;;2.30;;
34060;SDS011;20336;-33.424;-70.638;2023-11-21T04:53:33;6.40;;;2.23;;
34060;SDS011;20336;-33.424;-70.638;2023-11-21T04:56:01;5.90;;;2.10;;
34060;SDS011;20336;-33.424;-70.638;2023-11-21T04:58:28;5.60;;;2.13;;
34060;SDS011;20336;-33.424;-70.638;2023-11-21T05:00:56;5.33;;;1.60;;
34060;SDS011;20336;-33.424;-70.638;2023-11-21T05:03:22;7.23;;;2.03;;
34060;SDS011;20336;-33.424;-70.638;2023-11-21T05:05:50;3.43;;;1.70;;
34060;SDS011;20336;-33.424;-70.638;2023-11-21T05:08:16;5.23;;;1.43;;
34060;SDS011;20336;-33.424;-70.638;2023-11-21T05:10:45;8.70;;;1.80;;
34060;SDS011;20336;-33.424;-70.638;2023-11-21T05:13:13;5.37;;;1.80;;
34060;SDS011;20336;-33.424;-70.638;2023-11-21T05:15:42;7.73;;;2.23;;
34060;SDS011;20336;-33.424;-70.638;2023-11-21T05:18:09;7.23;;;1.87;;
34060;SDS011;20336;-33.424;-70.638;2023-11-21T05:20:36;5.80;;;1.80;;
34060;SDS011;20336;-33.424;-70.638;2023-11-21T05:23:03;5.70;;;1.73;;
34060;SDS011;20336;-33.424;-70.638;2023-11-21T05:25:31;9.30;;;2.03;;
34060;SDS011;20336;-33.424;-70.638;2023-11-21T05:27:57;9.53;;;2.00;;
34060;SDS011;20336;-33.424;-70.638;2023-11-21T05:30:26;5.10;;;1.70;;
34060;SDS011;20336;-33.424;-70.638;2023-11-21T05:32:53;6.97;;;2.10;;
34060;SDS011;20336;-33.424;-70.638;2023-11-21T05:35:20;4.87;;;1.93;;
34060;SDS011;20336;-33.424;-70.638;2023-11-21T05:37:47;6.60;;;2.00;;
34060;SDS011;20336;-33.424;-70.638;2023-11-21T05:40:14;5.03;;;1.83;;
34060;SDS011;20336;-33.424;-70.638;2023-11-21T05:42:41;9.17;;;2.07;;
34060;SDS011;20336;-33.424;-70.638;2023-11-21T05:45:08;6.93;;;1.80;;
34060;SDS011;20336;-33.424;-70.638;2023-11-21T05:47:37;5.20;;;2.00;;
34060;SDS011;20336;-33.424;-70.638;2023-11-21T05:50:05;11.50;;;2.10;;
34060;SDS011;20336;-33.424;-70.638;2023-11-21T05:52:32;7.50;;;1.83;;
34060;SDS011;20336;-33.424;-70.638;2023-11-21T05:54:59;9.63;;;2.20;;
34060;SDS011;20336;-33.424;-70.638;2023-11-21T05:57:25;6.13;;;1.83;;
34060;SDS011;20336;-33.424;-70.638;2023-11-21T05:59:52;6.97;;;1.80;;
34060;SDS011;20336;-33.424;-70.638;2023-11-21T06:02:20;6.77;;;2.10;;
34060;SDS011;20336;-33.424;-70.638;2023-11-21T06:04:47;6.20;;;2.20;;
34060;SDS011;20336;-33.424;-70.638;2023-11-21T06:07:14;5.80;;;1.80;;
34060;SDS011;20336;-33.424;-70.638;2023-11-21T06:09:41;6.13;;;2.00;;
34060;SDS011;20336;-33.424;-70.638;2023-11-21T06:12:09;7.77;;;2.10;;
34060;SDS011;20336;-33.424;-70.638;2023-11-21T06:14:36;4.10;;;2.03;;
34060;SDS011;20336;-33.424;-70.638;2023-11-21T06:17:03;5.97;;;2.00;;
34060;SDS011;20336;-33.424;-70.638;2023-11-21T06:19:30;6.37;;;2.20;;
34060;SDS011;20336;-33.424;-70.638;2023-11-21T06:21:57;6.27;;;2.40;;
34060;SDS011;20336;-33.424;-70.638;2023-11-21T06:24:23;10.33;;;2.50;;
34060;SDS011;20336;-33.424;-70.638;2023-11-21T06:26:50;5.77;;;2.07;;
34060;SDS011;20336;-33.424;-70.638;2023-11-21T06:29:17;9.60;;;2.90;;
34060;SDS011;20336;-33.424;-70.638;2023-11-21T06:31:44;7.23;;;2.40;;
34060;SDS011;20336;-33.424;-70.638;2023-11-21T06:34:11;6.83;;;2.23;;
34060;SDS011;20336;-33.424;-70.638;2023-11-21T06:36:39;7.50;;;2.70;;
34060;SDS011;20336;-33.424;-70.638;2023-11-21T06:39:06;7.33;;;2.23;;
34060;SDS011;20336;-33.424;-70.638;2023-11-21T06:41:34;8.70;;;2.13;;
34060;SDS011;20336;-33.424;-70.638;2023-11-21T06:44:04;8.40;;;2.57;;
34060;SDS011;20336;-33.424;-70.638;2023-11-21T06:46:31;4.27;;;2.10;;
34060;SDS011;20336;-33.424;-70.638;2023-11-21T06:48:58;7.87;;;2.47;;
34060;SDS011;20336;-33.424;-70.638;2023-11-21T06:51:25;11.13;;;2.90;;
34060;SDS011;20336;-33.424;-70.638;2023-11-21T06:53:52;5.90;;;2.50;;
34060;SDS011;20336;-33.424;-70.638;2023-11-21T06:56:19;5.00;;;2.20;;
34060;SDS011;20336;-33.424;-70.638;2023-11-21T06:58:46;5.60;;;1.90;;
34060;SDS011;20336;-33.424;-70.638;2023-11-21T07:01:14;5.30;;;2.40;;
34060;SDS011;20336;-33.424;-70.638;2023-11-21T07:03:41;6.20;;;2.07;;
34060;SDS011;20336;-33.424;-70.638;2023-11-21T07:06:08;6.77;;;2.17;;
34060;SDS011;20336;-33.424;-70.638;2023-11-21T07:08:37;6.03;;;2.37;;
34060;SDS011;20336;-33.424;-70.638;2023-11-21T07:11:04;8.00;;;2.60;;
34060;SDS011;20336;-33.424;-70.638;2023-11-21T07:13:31;6.53;;;2.40;;
34060;SDS011;20336;-33.424;-70.638;2023-11-21T07:15:58;7.93;;;2.60;;
34060;SDS011;20336;-33.424;-70.638;2023-11-21T07:18:26;7.20;;;2.23;;
34060;SDS011;20336;-33.424;-70.638;2023-11-21T07:20:52;8.90;;;2.80;;
34060;SDS011;20336;-33.424;-70.638;2023-11-21T07:23:19;9.03;;;2.30;;
34060;SDS011;20336;-33.424;-70.638;2023-11-21T07:25:48;10.50;;;2.47;;
34060;SDS011;20336;-33.424;-70.638;2023-11-21T07:28:15;5.97;;;2.50;;
34060;SDS011;20336;-33.424;-70.638;2023-11-21T07:30:42;4.37;;;1.87;;
34060;SDS011;20336;-33.424;-70.638;2023-11-21T07:33:09;4.50;;;1.93;;
34060;SDS011;20336;-33.424;-70.638;2023-11-21T07:35:35;4.47;;;2.30;;
34060;SDS011;20336;-33.424;-70.638;2023-11-21T07:38:02;4.47;;;2.30;;
34060;SDS011;20336;-33.424;-70.638;2023-11-21T07:40:29;7.80;;;2.70;;
34060;SDS011;20336;-33.424;-70.638;2023-11-21T07:42:57;10.73;;;2.67;;
34060;SDS011;20336;-33.424;-70.638;2023-11-21T07:45:25;8.17;;;2.60;;
34060;SDS011;20336;-33.424;-70.638;2023-11-21T07:47:53;7.37;;;2.33;;
34060;SDS011;20336;-33.424;-70.638;2023-11-21T07:50:21;3.07;;;1.87;;
34060;SDS011;20336;-33.424;-70.638;2023-11-21T07:52:48;8.43;;;2.37;;
34060;SDS011;20336;-33.424;-70.638;2023-11-21T07:55:16;7.50;;;2.47;;
34060;SDS011;20336;-33.424;-70.638;2023-11-21T07:57:42;5.93;;;2.53;;
34060;SDS011;20336;-33.424;-70.638;2023-11-21T08:00:10;9.23;;;2.10;;
34060;SDS011;20336;-33.424;-70.638;2023-11-21T08:02:38;5.47;;;2.37;;
34060;SDS011;20336;-33.424;-70.638;2023-11-21T08:05:08;6.23;;;2.40;;
34060;SDS011;20336;-33.424;-70.638;2023-11-21T08:07:36;7.53;;;2.50;;
34060;SDS011;20336;-33.424;-70.638;2023-11-21T08:10:03;7.93;;;2.60;;
34060;SDS011;20336;-33.424;-70.638;2023-11-21T08:12:35;6.13;;;2.10;;
34060;SDS011;20336;-33.424;-70.638;2023-11-21T08:15:04;6.43;;;2.50;;
34060;SDS011;20336;-33.424;-70.638;2023-11-21T08:17:31;7.27;;;2.20;;
34060;SDS011;20336;-33.424;-70.638;2023-11-21T08:19:58;7.00;;;2.77;;
34060;SDS011;20336;-33.424;-70.638;2023-11-21T08:22:25;7.27;;;2.50;;
34060;SDS011;20336;-33.424;-70.638;2023-11-21T08:24:52;5.63;;;2.57;;
34060;SDS011;20336;-33.424;-70.638;2023-11-21T08:27:21;6.60;;;2.40;;
34060;SDS011;20336;-33.424;-70.638;2023-11-21T08:29:48;7.97;;;3.23;;
34060;SDS011;20336;-33.424;-70.638;2023-11-21T08:32:16;8.17;;;3.47;;
34060;SDS011;20336;-33.424;-70.638;2023-11-21T08:34:43;11.03;;;2.93;;
34060;SDS011;20336;-33.424;-70.638;2023-11-21T08:37:11;11.90;;;3.53;;
34060;SDS011;20336;-33.424;-70.638;2023-11-21T08:39:37;11.03;;;3.30;;
34060;SDS011;20336;-33.424;-70.638;2023-11-21T08:42:04;8.87;;;3.33;;
34060;SDS011;20336;-33.424;-70.638;2023-11-21T08:44:31;8.47;;;3.07;;
34060;SDS011;20336;-33.424;-70.638;2023-11-21T08:46:58;9.10;;;3.43;;
34060;SDS011;20336;-33.424;-70.638;2023-11-21T08:49:25;8.07;;;3.50;;
34060;SDS011;20336;-33.424;-70.638;2023-11-21T08:51:54;7.00;;;3.00;;
34060;SDS011;20336;-33.424;-70.638;2023-11-21T08:54:23;6.37;;;3.23;;
34060;SDS011;20336;-33.424;-70.638;2023-11-21T08:56:51;6.67;;;3.10;;
34060;SDS011;20336;-33.424;-70.638;2023-11-21T08:59:18;7.97;;;3.47;;
34060;SDS011;20336;-33.424;-70.638;2023-11-21T09:01:45;6.07;;;2.90;;
34060;SDS011;20336;-33.424;-70.638;2023-11-21T09:04:12;7.93;;;3.00;;
34060;SDS011;20336;-33.424;-70.638;2023-11-21T09:06:39;5.63;;;2.63;;
34060;SDS011;20336;-33.424;-70.638;2023-11-21T09:09:06;6.90;;;2.80;;
34060;SDS011;20336;-33.424;-70.638;2023-11-21T09:11:36;7.80;;;3.10;;
34060;SDS011;20336;-33.424;-70.638;2023-11-21T09:14:03;10.23;;;2.87;;
34060;SDS011;20336;-33.424;-70.638;2023-11-21T09:16:30;7.23;;;2.60;;
34060;SDS011;20336;-33.424;-70.638;2023-11-21T09:18:57;7.97;;;2.53;;
34060;SDS011;20336;-33.424;-70.638;2023-11-21T09:21:24;7.00;;;2.13;;
34060;SDS011;20336;-33.424;-70.638;2023-11-21T09:23:53;5.33;;;2.30;;
34060;SDS011;20336;-33.424;-70.638;2023-11-21T09:26:20;5.67;;;2.70;;
34060;SDS011;20336;-33.424;-70.638;2023-11-21T09:28:47;8.57;;;2.53;;
34060;SDS011;20336;-33.424;-70.638;2023-11-21T09:31:14;10.80;;;3.00;;
34060;SDS011;20336;-33.424;-70.638;2023-11-21T09:33:42;6.23;;;2.83;;
34060;SDS011;20336;-33.424;-70.638;2023-11-21T09:36:13;5.60;;;2.57;;
34060;SDS011;20336;-33.424;-70.638;2023-11-21T09:38:42;4.87;;;2.57;;
34060;SDS011;20336;-33.424;-70.638;2023-11-21T09:41:13;6.30;;;2.40;;
34060;SDS011;20336;-33.424;-70.638;2023-11-21T09:43:44;7.83;;;3.23;;
34060;SDS011;20336;-33.424;-70.638;2023-11-21T09:46:12;8.40;;;3.03;;
34060;SDS011;20336;-33.424;-70.638;2023-11-21T09:48:47;8.10;;;2.93;;
34060;SDS011;20336;-33.424;-70.638;2023-11-21T09:51:16;4.63;;;2.50;;
34060;SDS011;20336;-33.424;-70.638;2023-11-21T09:53:45;8.43;;;2.83;;
34060;SDS011;20336;-33.424;-70.638;2023-11-21T09:56:14;9.90;;;2.30;;
34060;SDS011;20336;-33.424;-70.638;2023-11-21T09:58:45;8.10;;;2.80;;
34060;SDS011;20336;-33.424;-70.638;2023-11-21T10:01:12;7.30;;;2.60;;
34060;SDS011;20336;-33.424;-70.638;2023-11-21T10:03:40;9.87;;;2.60;;
34060;SDS011;20336;-33.424;-70.638;2023-11-21T10:06:08;7.63;;;2.67;;
34060;SDS011;20336;-33.424;-70.638;2023-11-21T10:08:35;6.03;;;2.50;;
34060;SDS011;20336;-33.424;-70.638;2023-11-21T10:11:03;5.30;;;2.40;;
34060;SDS011;20336;-33.424;-70.638;2023-11-21T10:13:32;6.40;;;2.30;;
34060;SDS011;20336;-33.424;-70.638;2023-11-21T10:16:00;10.33;;;2.40;;
34060;SDS011;20336;-33.424;-70.638;2023-11-21T10:18:31;6.50;;;2.70;;
34060;SDS011;20336;-33.424;-70.638;2023-11-21T10:20:59;6.10;;;2.10;;
34060;SDS011;20336;-33.424;-70.638;2023-11-21T10:23:27;5.13;;;2.07;;
34060;SDS011;20336;-33.424;-70.638;2023-11-21T10:25:54;7.27;;;2.10;;
34060;SDS011;20336;-33.424;-70.638;2023-11-21T10:28:22;6.07;;;2.23;;
34060;SDS011;20336;-33.424;-70.638;2023-11-21T10:30:49;5.50;;;2.30;;
34060;SDS011;20336;-33.424;-70.638;2023-11-21T10:33:16;5.07;;;2.17;;
34060;SDS011;20336;-33.424;-70.638;2023-11-21T10:35:43;6.30;;;2.13;;
34060;SDS011;20336;-33.424;-70.638;2023-11-21T10:38:17;6.53;;;2.60;;
34060;SDS011;20336;-33.424;-70.638;2023-11-21T10:40:45;7.03;;;2.70;;
34060;SDS011;20336;-33.424;-70.638;2023-11-21T10:43:13;7.80;;;2.67;;
34060;SDS011;20336;-33.424;-70.638;2023-11-21T10:45:44;8.80;;;2.60;;
34060;SDS011;20336;-33.424;-70.638;2023-11-21T10:48:14;9.23;;;2.90;;
34060;SDS011;20336;-33.424;-70.638;2023-11-21T10:50:43;11.60;;;2.87;;
34060;SDS011;20336;-33.424;-70.638;2023-11-21T10:53:10;10.87;;;2.70;;
34060;SDS011;20336;-33.424;-70.638;2023-11-21T10:55:38;8.07;;;2.60;;
34060;SDS011;20336;-33.424;-70.638;2023-11-21T10:58:05;9.07;;;3.10;;
34060;SDS011;20336;-33.424;-70.638;2023-11-21T11:00:33;9.10;;;3.50;;
34060;SDS011;20336;-33.424;-70.638;2023-11-21T11:03:00;11.77;;;3.70;;
34060;SDS011;20336;-33.424;-70.638;2023-11-21T11:05:28;7.80;;;3.57;;
34060;SDS011;20336;-33.424;-70.638;2023-11-21T11:07:59;14.37;;;4.27;;
34060;SDS011;20336;-33.424;-70.638;2023-11-21T11:10:27;14.70;;;4.80;;
34060;SDS011;20336;-33.424;-70.638;2023-11-21T11:12:58;10.07;;;4.03;;
34060;SDS011;20336;-33.424;-70.638;2023-11-21T11:15:25;12.03;;;4.70;;
34060;SDS011;20336;-33.424;-70.638;2023-11-21T11:17:53;12.03;;;4.67;;
34060;SDS011;20336;-33.424;-70.638;2023-11-21T11:20:24;8.87;;;4.37;;
34060;SDS011;20336;-33.424;-70.638;2023-11-21T11:22:56;9.93;;;4.70;;
34060;SDS011;20336;-33.424;-70.638;2023-11-21T11:28:11;12.60;;;4.30;;
34060;SDS011;20336;-33.424;-70.638;2023-11-21T11:38:45;13.27;;;5.30;;
34060;SDS011;20336;-33.424;-70.638;2023-11-21T11:41:23;10.35;;;4.63;;
34060;SDS011;20336;-33.424;-70.638;2023-11-21T11:43:51;12.60;;;4.88;;
34060;SDS011;20336;-33.424;-70.638;2023-11-21T11:46:18;14.70;;;5.43;;
34060;SDS011;20336;-33.424;-70.638;2023-11-21T11:48:48;12.07;;;5.03;;
34060;SDS011;20336;-33.424;-70.638;2023-11-21T11:51:29;10.15;;;4.43;;
34060;SDS011;20336;-33.424;-70.638;2023-11-21T11:53:57;10.98;;;5.53;;
34060;SDS011;20336;-33.424;-70.638;2023-11-21T11:56:27;20.02;;;5.30;;
34060;SDS011;20336;-33.424;-70.638;2023-11-21T11:58:56;9.70;;;5.00;;
34060;SDS011;20336;-33.424;-70.638;2023-11-21T12:01:24;10.40;;;5.18;;
34060;SDS011;20336;-33.424;-70.638;2023-11-21T12:06:42;12.60;;;5.30;;
34060;SDS011;20336;-33.424;-70.638;2023-11-21T12:09:27;11.95;;;5.50;;
34060;SDS011;20336;-33.424;-70.638;2023-11-21T12:11:55;10.20;;;4.88;;
34060;SDS011;20336;-33.424;-70.638;2023-11-21T12:14:22;11.25;;;4.90;;
34060;SDS011;20336;-33.424;-70.638;2023-11-21T12:16:49;15.90;;;4.82;;
34060;SDS011;20336;-33.424;-70.638;2023-11-21T12:19:17;10.95;;;4.88;;
34060;SDS011;20336;-33.424;-70.638;2023-11-21T12:21:44;9.65;;;4.75;;
34060;SDS011;20336;-33.424;-70.638;2023-11-21T12:24:11;10.63;;;4.85;;
34060;SDS011;20336;-33.424;-70.638;2023-11-21T12:26:39;11.38;;;5.55;;
34060;SDS011;20336;-33.424;-70.638;2023-11-21T12:29:06;12.55;;;5.53;;
34060;SDS011;20336;-33.424;-70.638;2023-11-21T12:31:34;13.43;;;6.00;;
34060;SDS011;20336;-33.424;-70.638;2023-11-21T12:34:01;13.45;;;5.53;;
34060;SDS011;20336;-33.424;-70.638;2023-11-21T12:36:29;12.27;;;5.63;;
34060;SDS011;20336;-33.424;-70.638;2023-11-21T12:38:56;15.88;;;5.38;;
34060;SDS011;20336;-33.424;-70.638;2023-11-21T12:41:23;14.23;;;5.28;;
34060;SDS011;20336;-33.424;-70.638;2023-11-21T12:43:51;11.05;;;4.90;;
34060;SDS011;20336;-33.424;-70.638;2023-11-21T12:46:18;13.00;;;5.50;;
34060;SDS011;20336;-33.424;-70.638;2023-11-21T12:48:45;17.40;;;5.40;;
34060;SDS011;20336;-33.424;-70.638;2023-11-21T12:51:13;16.45;;;6.35;;
34060;SDS011;20336;-33.424;-70.638;2023-11-21T12:53:41;17.67;;;6.55;;
34060;SDS011;20336;-33.424;-70.638;2023-11-21T12:56:11;18.15;;;6.55;;
34060;SDS011;20336;-33.424;-70.638;2023-11-21T12:58:39;14.90;;;6.60;;
34060;SDS011;20336;-33.424;-70.638;2023-11-21T13:01:07;12.60;;;6.13;;
34060;SDS011;20336;-33.424;-70.638;2023-11-21T13:03:40;16.35;;;6.78;;
34060;SDS011;20336;-33.424;-70.638;2023-11-21T13:06:10;15.93;;;7.05;;
34060;SDS011;20336;-33.424;-70.638;2023-11-21T13:08:38;14.98;;;6.35;;
34060;SDS011;20336;-33.424;-70.638;2023-11-21T13:11:05;23.42;;;7.57;;
34060;SDS011;20336;-33.424;-70.638;2023-11-21T13:13:32;23.58;;;7.80;;
34060;SDS011;20336;-33.424;-70.638;2023-11-21T13:16:00;16.98;;;7.35;;
34060;SDS011;20336;-33.424;-70.638;2023-11-21T13:18:30;25.10;;;8.70;;
34060;SDS011;20336;-33.424;-70.638;2023-11-21T13:20:58;17.00;;;7.10;;
34060;SDS011;20336;-33.424;-70.638;2023-11-21T13:23:25;22.98;;;7.47;;
34060;SDS011;20336;-33.424;-70.638;2023-11-21T13:25:54;16.33;;;7.30;;
34060;SDS011;20336;-33.424;-70.638;2023-11-21T13:28:21;19.13;;;7.05;;
34060;SDS011;20336;-33.424;-70.638;2023-11-21T13:30:52;20.23;;;7.00;;
34060;SDS011;20336;-33.424;-70.638;2023-11-21T13:33:19;13.43;;;6.30;;
34060;SDS011;20336;-33.424;-70.638;2023-11-21T13:35:47;18.63;;;6.82;;
34060;SDS011;20336;-33.424;-70.638;2023-11-21T13:38:17;17.80;;;6.47;;
34060;SDS011;20336;-33.424;-70.638;2023-11-21T13:40:49;17.92;;;5.60;;
34060;SDS011;20336;-33.424;-70.638;2023-11-21T13:43:20;17.77;;;5.95;;
34060;SDS011;20336;-33.424;-70.638;2023-11-21T13:45:48;15.05;;;6.20;;
34060;SDS011;20336;-33.424;-70.638;2023-11-21T13:48:21;19.55;;;6.32;;
34060;SDS011;20336;-33.424;-70.638;2023-11-21T13:50:57;20.42;;;5.90;;
34060;SDS011;20336;-33.424;-70.638;2023-11-21T13:53:26;18.83;;;5.45;;
34060;SDS011;20336;-33.424;-70.638;2023-11-21T13:55:54;13.05;;;4.85;;
34060;SDS011;20336;-33.424;-70.638;2023-11-21T13:58:23;14.50;;;4.70;;
34060;SDS011;20336;-33.424;-70.638;2023-11-21T14:01:05;10.68;;;4.43;;
34060;SDS011;20336;-33.424;-70.638;2023-11-21T14:03:38;15.25;;;4.97;;
34060;SDS011;20336;-33.424;-70.638;2023-11-21T14:06:15;10.15;;;3.70;;
34060;SDS011;20336;-33.424;-70.638;2023-11-21T14:08:50;13.88;;;4.38;;
34060;SDS011;20336;-33.424;-70.638;2023-11-21T14:11:18;16.85;;;4.80;;
34060;SDS011;20336;-33.424;-70.638;2023-11-21T14:13:47;15.82;;;4.82;;
34060;SDS011;20336;-33.424;-70.638;2023-11-21T14:16:15;15.02;;;4.60;;
34060;SDS011;20336;-33.424;-70.638;2023-11-21T14:18:42;34.17;;;8.10;;
34060;SDS011;20336;-33.424;-70.638;2023-11-21T14:21:24;14.73;;;5.15;;
34060;SDS011;20336;-33.424;-70.638;2023-11-21T14:23:51;12.23;;;5.25;;